createdAt,value
2023-02-05T00:00:31.854Z,-3.60
2023-02-05T00:05:40.038Z,-3.60
2023-02-05T00:10:48.457Z,-3.60
2023-02-05T00:15:57.015Z,-3.60
2023-02-05T00:21:10.246Z,-3.70
2023-02-05T00:26:20.160Z,-3.60
2023-02-05T00:31:29.196Z,-3.60
2023-02-05T00:36:36.750Z,-3.60
2023-02-05T00:41:44.561Z,-3.60
2023-02-05T00:46:52.040Z,-3.50
2023-02-05T00:51:58.952Z,-3.50
2023-02-05T00:57:06.244Z,-3.50
2023-02-05T01:02:13.522Z,-3.60
2023-02-05T01:07:22.010Z,-3.70
2023-02-05T01:12:29.863Z,-3.70
2023-02-05T01:17:38.190Z,-3.60
2023-02-05T01:22:45.667Z,-3.60
2023-02-05T01:27:52.757Z,-3.60
2023-02-05T01:32:59.671Z,-3.50
2023-02-05T01:38:06.372Z,-3.50
2023-02-05T01:43:18.405Z,-3.50
2023-02-05T01:48:30.122Z,-3.50
2023-02-05T01:53:38.596Z,-3.60
2023-02-05T01:58:53.794Z,-3.70
2023-02-05T02:04:05.798Z,-3.50
2023-02-05T02:09:13.560Z,-3.50
2023-02-05T02:14:21.903Z,-3.40
2023-02-05T02:19:36.073Z,-3.40
2023-02-05T02:25:08.484Z,-3.50
2023-02-05T02:30:27.972Z,-3.20
2023-02-05T02:35:42.983Z,-3.20
2023-02-05T02:40:57.439Z,-3.10
2023-02-05T02:46:10.943Z,-3.20
2023-02-05T02:51:22.085Z,-3.00
2023-02-05T02:56:32.151Z,-3.10
2023-02-05T03:01:52.361Z,-3.00
2023-02-05T03:06:55.646Z,-3.10
2023-02-05T03:12:02.568Z,-3.20
2023-02-05T03:17:09.592Z,-3.00
2023-02-05T03:22:16.308Z,-3.00
2023-02-05T03:27:24.941Z,-3.00
2023-02-05T03:32:51.351Z,-2.90
2023-02-05T03:38:34.790Z,-3.00
2023-02-05T03:43:57.837Z,-3.20
2023-02-05T03:49:12.366Z,-3.00
2023-02-05T03:54:41.866Z,-3.00
2023-02-05T03:59:50.049Z,-3.20
2023-02-05T04:04:58.802Z,-3.10
2023-02-05T04:10:08.450Z,-3.00
2023-02-05T04:15:15.249Z,-2.90
2023-02-05T04:20:22.310Z,-3.00
2023-02-05T04:25:30.883Z,-3.10
2023-02-05T04:30:37.784Z,-3.20
2023-02-05T04:35:45.676Z,-3.10
2023-02-05T04:40:52.556Z,-3.10
2023-02-05T04:45:58.799Z,-3.00
2023-02-05T04:51:14.410Z,-3.10
2023-02-05T04:56:21.990Z,-3.20
2023-02-05T05:01:29.183Z,-3.10
2023-02-05T05:06:36.919Z,-3.00
2023-02-05T05:11:43.907Z,-3.10
2023-02-05T05:16:52.249Z,-3.10
2023-02-05T05:22:00.170Z,-3.10
2023-02-05T05:27:07.017Z,-3.10
2023-02-05T05:32:15.151Z,-3.20
2023-02-05T05:37:22.433Z,-3.20
2023-02-05T05:42:45.795Z,-3.20
2023-02-05T05:47:54.937Z,-3.30
2023-02-05T05:53:02.085Z,-3.30
2023-02-05T05:58:09.879Z,-3.00
2023-02-05T06:03:16.949Z,-3.00
2023-02-05T06:08:25.032Z,-3.00
2023-02-05T06:13:33.081Z,-2.80
2023-02-05T06:18:40.198Z,-2.90
2023-02-05T06:23:47.484Z,-3.00
2023-02-05T06:28:56.023Z,-3.10
2023-02-05T06:34:02.714Z,-3.10
2023-02-05T06:39:09.607Z,-3.10
2023-02-05T06:44:16.744Z,-3.10
2023-02-05T06:49:23.527Z,-3.30
2023-02-05T06:54:32.544Z,-3.60
2023-02-05T06:59:40.671Z,-3.60
2023-02-05T07:04:48.190Z,-3.90
2023-02-05T07:09:55.006Z,-3.70
2023-02-05T07:15:01.923Z,-3.60
2023-02-05T07:20:09.482Z,-3.80
2023-02-05T07:25:18.264Z,-3.80
2023-02-05T07:30:25.935Z,-3.70
2023-02-05T07:35:37.219Z,-3.60
2023-02-05T07:40:44.428Z,-3.30
2023-02-05T07:45:59.528Z,-2.60
2023-02-05T07:51:08.733Z,-2.10
2023-02-05T07:56:17.326Z,-2.00
2023-02-05T08:01:24.650Z,-2.00
2023-02-05T08:06:31.828Z,-1.30
2023-02-05T08:11:39.482Z,-1.10
2023-02-05T08:16:48.141Z,-0.60
2023-02-05T08:21:55.032Z,-0.60
2023-02-05T08:27:02.344Z,0.00
2023-02-05T08:32:09.634Z,0.10
2023-02-05T08:37:16.833Z,0.00
2023-02-05T08:42:22.624Z,0.50
2023-02-05T08:47:29.477Z,1.00
2023-02-05T08:52:35.731Z,1.00
2023-02-05T08:57:43.003Z,0.90
2023-02-05T09:02:49.649Z,1.30
2023-02-05T09:07:56.301Z,1.60
2023-02-05T09:13:03.735Z,1.90
2023-02-05T09:18:10.389Z,1.90
2023-02-05T09:23:17.644Z,2.00
2023-02-05T09:28:24.533Z,2.20
2023-02-05T09:33:31.504Z,2.00
2023-02-05T09:38:39.457Z,2.00
2023-02-05T09:44:01.547Z,2.40
2023-02-05T09:49:23.755Z,2.60
2023-02-05T09:54:37.440Z,3.00
2023-02-05T09:59:49.462Z,3.30
2023-02-05T10:04:57.308Z,3.00
2023-02-05T10:10:33.321Z,3.10
2023-02-05T10:16:00.383Z,2.50
2023-02-05T10:21:31.144Z,3.20
2023-02-05T10:26:42.552Z,1.10
2023-02-05T10:31:59.622Z,2.00
2023-02-05T10:42:28.052Z,2.50
2023-02-05T10:47:51.571Z,3.00
2023-02-05T10:52:58.743Z,2.30
2023-02-05T10:58:25.707Z,2.20
2023-02-05T11:03:33.314Z,1.60
2023-02-05T11:08:45.493Z,1.60
2023-02-05T11:13:56.921Z,2.20
2023-02-05T11:19:04.312Z,2.40
2023-02-05T11:24:16.333Z,2.30
2023-02-05T11:29:24.800Z,1.90
2023-02-05T11:34:31.637Z,1.80
2023-02-05T11:39:41.618Z,1.60
2023-02-05T11:44:55.996Z,2.20
2023-02-05T11:50:03.658Z,2.40
2023-02-05T11:55:15.242Z,2.00
2023-02-05T12:00:24.396Z,1.10
2023-02-05T12:05:36.193Z,2.00
2023-02-05T12:10:54.063Z,1.90
2023-02-05T12:16:40.608Z,2.10
2023-02-05T12:22:16.145Z,1.90
2023-02-05T12:27:33.142Z,2.00
2023-02-05T12:32:56.126Z,2.30
2023-02-05T12:38:32.520Z,1.60
2023-02-05T12:43:44.610Z,0.90
2023-02-05T12:49:07.776Z,1.60
2023-02-05T12:54:27.648Z,1.80
2023-02-05T12:59:55.169Z,0.80
2023-02-05T13:05:35.685Z,1.60
2023-02-05T13:11:09.282Z,1.50
2023-02-05T13:16:19.835Z,1.70
2023-02-05T13:21:45.849Z,1.70
2023-02-05T13:27:12.549Z,1.70
2023-02-05T13:32:23.797Z,1.40
2023-02-05T13:37:59.519Z,1.10
2023-02-05T13:43:23.842Z,0.60
2023-02-05T13:48:59.715Z,0.40
2023-02-05T13:54:32.513Z,-0.50
2023-02-05T13:59:46.951Z,-0.50
2023-02-05T14:04:54.989Z,-0.90
2023-02-05T14:10:03.612Z,-0.90
2023-02-05T14:15:25.199Z,-1.00
2023-02-05T14:20:39.492Z,-1.30
2023-02-05T14:26:09.528Z,-1.10
2023-02-05T14:31:46.523Z,-1.40
2023-02-05T14:36:54.389Z,-1.70
2023-02-05T14:42:06.137Z,-1.80
2023-02-05T14:47:31.745Z,-1.90
2023-02-05T14:52:43.525Z,-2.10
2023-02-05T14:58:04.942Z,-2.10
2023-02-05T15:03:20.487Z,-2.00
2023-02-05T15:08:32.372Z,-2.00
2023-02-05T15:13:39.632Z,-2.30
2023-02-05T15:19:02.119Z,-2.40
2023-02-05T15:24:21.474Z,-2.60
2023-02-05T15:29:47.068Z,-2.60
2023-02-05T15:35:10.903Z,-2.80
2023-02-05T15:40:33.246Z,-2.80
2023-02-05T15:45:45.742Z,-2.90
2023-02-05T15:51:06.525Z,-3.00
2023-02-05T15:56:35.235Z,-3.00
2023-02-05T16:01:49.198Z,-3.20
2023-02-05T16:06:57.230Z,-3.40
2023-02-05T16:12:15.582Z,-3.50
2023-02-05T16:17:33.863Z,-3.70
2023-02-05T16:22:56.160Z,-3.70
2023-02-05T16:28:07.609Z,-3.80
2023-02-05T16:33:50.326Z,-4.10
2023-02-05T16:39:05.328Z,-3.80
2023-02-05T16:44:31.336Z,-4.00
2023-02-05T16:49:38.107Z,-4.20
2023-02-05T16:54:44.983Z,-4.00
2023-02-05T17:00:09.171Z,-4.10
2023-02-05T17:05:28.516Z,-4.30
2023-02-05T17:10:59.226Z,-4.20
2023-02-05T17:16:31.883Z,-4.40
2023-02-05T17:21:40.936Z,-4.40
2023-02-05T17:26:50.178Z,-4.30
2023-02-05T17:31:59.082Z,-4.50
2023-02-05T17:37:06.089Z,-4.30
2023-02-05T17:42:26.191Z,-4.30
2023-02-05T17:47:34.075Z,-4.10
2023-02-05T17:52:41.509Z,-4.20
2023-02-05T17:57:49.749Z,-4.70
2023-02-05T18:02:57.565Z,-4.50
2023-02-05T18:08:04.536Z,-4.60
2023-02-05T18:13:10.584Z,-4.40
2023-02-05T18:18:17.749Z,-4.90
2023-02-05T18:23:29.109Z,-4.60
2023-02-05T18:28:34.139Z,-4.90
2023-02-05T18:33:41.513Z,-4.70
2023-02-05T18:38:49.024Z,-4.70
2023-02-05T18:43:57.469Z,-4.70
2023-02-05T18:49:05.067Z,-5.00
2023-02-05T18:54:13.585Z,-4.90
2023-02-05T18:59:21.990Z,-5.10
2023-02-05T19:04:31.774Z,-5.20
2023-02-05T19:09:38.820Z,-5.20
2023-02-05T19:14:47.240Z,-5.20
2023-02-05T19:19:55.849Z,-5.10
2023-02-05T19:25:03.334Z,-5.10
2023-02-05T19:30:12.553Z,-5.10
2023-02-05T19:35:19.701Z,-5.00
2023-02-05T19:40:27.612Z,-4.80
2023-02-05T19:45:39.936Z,-5.20
2023-02-05T19:50:47.712Z,-5.70
2023-02-05T19:55:55.014Z,-5.70
2023-02-05T20:01:07.595Z,-5.60
2023-02-05T20:06:19.221Z,-5.80
2023-02-05T20:11:31.419Z,-6.40
2023-02-05T20:16:45.244Z,-6.20
2023-02-05T20:21:52.398Z,-6.50
2023-02-05T20:26:59.359Z,-6.20
2023-02-05T20:32:06.418Z,-5.90
2023-02-05T20:37:14.421Z,-6.00
2023-02-05T20:42:22.116Z,-5.90
2023-02-05T20:47:30.160Z,-6.00
2023-02-05T20:52:37.377Z,-5.90
2023-02-05T20:57:45.911Z,-6.70
2023-02-05T21:02:52.925Z,-6.70
2023-02-05T21:07:59.712Z,-6.70
2023-02-05T21:13:07.156Z,-6.70
2023-02-05T21:18:16.909Z,-6.50
2023-02-05T21:23:24.251Z,-6.70
2023-02-05T21:28:31.969Z,-6.90
2023-02-05T21:33:39.775Z,-6.80
2023-02-05T21:38:48.118Z,-6.80
2023-02-05T21:43:59.194Z,-7.40
2023-02-05T21:49:06.712Z,-7.20
2023-02-05T21:54:14.794Z,-7.50
2023-02-05T21:59:25.864Z,-7.00
2023-02-05T22:04:34.560Z,-6.70
2023-02-05T22:09:42.389Z,-7.00
2023-02-05T22:14:50.498Z,-7.30
2023-02-05T22:19:57.189Z,-6.90
2023-02-05T22:25:05.163Z,-6.80
2023-02-05T22:30:18.212Z,-7.00
2023-02-05T22:35:25.194Z,-6.80
2023-02-05T22:40:31.964Z,-7.00
2023-02-05T22:45:40.518Z,-7.20
2023-02-05T22:50:48.086Z,-7.50
2023-02-05T22:55:57.923Z,-7.30
2023-02-05T23:01:14.915Z,-7.10
2023-02-05T23:06:32.666Z,-7.40
2023-02-05T23:11:44.221Z,-7.40
2023-02-05T23:16:51.137Z,-7.70
2023-02-05T23:21:58.104Z,-7.70
2023-02-05T23:27:06.083Z,-7.90
2023-02-05T23:32:14.514Z,-7.90
2023-02-05T23:37:23.982Z,-7.90
2023-02-05T23:42:32.153Z,-7.80
2023-02-05T23:47:40.680Z,-7.90
2023-02-05T23:52:47.860Z,-7.90
2023-02-05T23:57:55.819Z,-7.90
